Startpagina
METAR-TAF:

METAR-TAF

Vliegvelden :

Tarawa, Kiribati

Bonriki International Airport

breedte: 01-21N, lengte: 172-55E, hoogte: 2 m

Actueel weer

Dit bericht is 1 uur en het 8 minuten geleden gemaakt, om 06:00 UTC
Wind 14 kt uit het noordoosten
Temperatuur 29°C
Vochtigheid 74%
Druk 1008 hPa
Zicht 10 km of meer
Weinig wolken op 1800 ft, Stapelwolken.

METAR: NGTA 270600Z 05014KT 9999 FEW018TCU 29/24 Q1008

Tijdstip: 21:08 (07:08 UTC)

Verwachting

Dit bericht is 1 uur en het 42 minuten geleden gemaakt, om 05:26 UTC
Verwachting geldig van 27 om 06 UTC tot 28 om 06 UTC
Wind 13 kt uit het oostnoordoosten
Zicht 10 km of meer
Verspreide wolken op 1700 ft
Verspreide wolken op 4000 ft
lichte regenbuien
Kans 30% :
Tijdelijke
van 28 om 02 UTC tot 28 om 06 UTC
Zicht: 5000 m
Weinig wolken op 1600 ft, Cumulonimbus.
onweer, regen

TAF: NGTA 270526Z 2706/2806 07013KT 9999 -SHRA SCT017 SCT040 PROB30 TEMPO 2802/2806 5000 TSRA FEW016CB

Waarnemingen en weersverwachtingen van meer dan 4000 vliegvelden (METAR en TAF).

De beschikbare stations zijn de gele en rode punten op de kaart.

Ga met uw muis naar het station om de naam te zien.

Klik dan om waarnemingen en weersverwachtingen te zien.

kaart wijzigen: klik op de groene knoppen met een zwart kruis om in te zoomen, op de groene knop met een streepje om uit te zoomen of op de groene pijlen voor aangrenzende kaarten.


METAR-TAF: